Time;durP1;ratioP1;P1;durP2;ratioP2;P2;SDS_P1;SDS_P2;PMS_P1;PMS_P2;Temp;Humidity;BMP_temperature;BMP_pressure;BME280_temperature;BME280_humidity;BME280_pressure;Samples;Min_cycle;Max_cycle;Signal;HPM_P1;HPM_P2
2023/03/25 00:00:23;;;;;;;4.00;2.00;;;;;;;-128.00;-1.00;-1.00;18443;338;7504848;-34
2023/03/25 00:02:50;;;;;;;5.90;3.10;;;;;;;-128.00;-1.00;-1.00;18465;297;7504514;-34
2023/03/25 00:05:17;;;;;;;3.40;2.40;;;;;;;-128.00;-1.00;-1.00;18449;297;7505958;-34
2023/03/25 00:07:44;;;;;;;5.50;2.90;;;;;;;-128.00;-1.00;-1.00;18466;338;7505441;-31
2023/03/25 00:10:10;;;;;;;4.80;2.90;;;;;;;-128.00;-1.00;-1.00;18471;349;7505794;-35
2023/03/25 00:12:36;;;;;;;5.30;2.20;;;;;;;-128.00;-1.00;-1.00;18470;297;7506260;-35
2023/03/25 00:15:01;;;;;;;3.80;1.60;;;;;;;-128.00;-1.00;-1.00;18455;336;7504917;-31
2023/03/25 00:17:30;;;;;;;11.40;1.60;;;;;;;-128.00;-1.00;-1.00;18466;298;7504989;-31
2023/03/25 00:19:59;;;;;;;1.10;0.80;;;;;;;-128.00;-1.00;-1.00;18451;298;7504289;-35
2023/03/25 00:22:25;;;;;;;4.50;2.70;;;;;;;-128.00;-1.00;-1.00;18459;309;7506080;-35
2023/03/25 00:24:51;;;;;;;7.20;2.20;;;;;;;-128.00;-1.00;-1.00;18472;338;7506023;-34
2023/03/25 00:27:18;;;;;;;3.70;2.00;;;;;;;-128.00;-1.00;-1.00;18859;297;7504335;-32
2023/03/25 00:29:44;;;;;;;2.60;1.40;;;;;;;-128.00;-1.00;-1.00;18460;342;7504477;-31
2023/03/25 00:32:11;;;;;;;4.20;2.20;;;;;;;-128.00;-1.00;-1.00;18457;298;7504784;-34
2023/03/25 00:34:40;;;;;;;3.10;2.20;;;;;;;-128.00;-1.00;-1.00;18452;297;7506423;-35
2023/03/25 00:37:08;;;;;;;5.60;2.90;;;;;;;-128.00;-1.00;-1.00;18451;298;7504556;-35
2023/03/25 00:39:34;;;;;;;3.80;1.20;;;;;;;-128.00;-1.00;-1.00;18465;297;7504627;-31
2023/03/25 00:42:01;;;;;;;4.50;1.80;;;;;;;-128.00;-1.00;-1.00;18469;297;7505018;-30
2023/03/25 00:44:28;;;;;;;3.70;1.90;;;;;;;-128.00;-1.00;-1.00;18431;297;7505040;-34
2023/03/25 00:46:53;;;;;;;3.20;1.40;;;;;;;-128.00;-1.00;-1.00;18438;297;7504784;-30
2023/03/25 00:49:23;;;;;;;2.60;1.00;;;;;;;-128.00;-1.00;-1.00;18864;297;7504782;-34
2023/03/25 00:51:50;;;;;;;3.80;1.20;;;;;;;-128.00;-1.00;-1.00;18473;297;7506262;-34
2023/03/25 00:54:17;;;;;;;4.60;1.70;;;;;;;-128.00;-1.00;-1.00;18457;298;7505477;-35
2023/03/25 00:56:43;;;;;;;4.30;2.70;;;;;;;-128.00;-1.00;-1.00;18454;297;7504687;-32
2023/03/25 00:59:09;;;;;;;2.40;1.70;;;;;;;-128.00;-1.00;-1.00;18455;321;7505197;-35
2023/03/25 01:01:38;;;;;;;5.50;2.40;;;;;;;-128.00;-1.00;-1.00;18445;297;7504424;-36
2023/03/25 01:04:10;;;;;;;9.10;2.00;;;;;;;-128.00;-1.00;-1.00;18469;297;7504554;-35
2023/03/25 01:06:40;;;;;;;3.50;2.00;;;;;;;-128.00;-1.00;-1.00;18465;297;7504749;-35
2023/03/25 01:09:07;;;;;;;2.60;2.10;;;;;;;-128.00;-1.00;-1.00;18472;297;7504633;-32
2023/03/25 01:11:33;;;;;;;3.90;1.90;;;;;;;-128.00;-1.00;-1.00;18453;297;7504097;-34
2023/03/25 01:13:59;;;;;;;3.50;2.10;;;;;;;-128.00;-1.00;-1.00;18445;297;7505286;-35
2023/03/25 01:16:25;;;;;;;3.40;2.30;;;;;;;-128.00;-1.00;-1.00;18471;297;7507097;-35
2023/03/25 01:18:51;;;;;;;2.60;1.50;;;;;;;-128.00;-1.00;-1.00;18450;297;7506090;-34
2023/03/25 01:21:17;;;;;;;3.70;2.40;;;;;;;-128.00;-1.00;-1.00;18462;297;7504514;-35
2023/03/25 01:23:43;;;;;;;12.80;2.60;;;;;;;-128.00;-1.00;-1.00;18458;297;7506399;-31
2023/03/25 01:26:09;;;;;;;4.30;1.50;;;;;;;-128.00;-1.00;-1.00;18479;297;7504303;-31
2023/03/25 01:28:34;;;;;;;2.90;2.00;;;;;;;-128.00;-1.00;-1.00;18460;297;7504171;-31
2023/03/25 01:31:01;;;;;;;2.90;1.60;;;;;;;-128.00;-1.00;-1.00;18466;338;7504592;-32
2023/03/25 01:33:27;;;;;;;3.30;1.90;;;;;;;-128.00;-1.00;-1.00;18478;297;7506572;-35
2023/03/25 01:35:53;;;;;;;3.30;1.80;;;;;;;-128.00;-1.00;-1.00;18459;297;7504747;-31
2023/03/25 01:38:19;;;;;;;4.20;2.00;;;;;;;-128.00;-1.00;-1.00;18875;297;7504385;-32
2023/03/25 01:40:45;;;;;;;3.50;1.60;;;;;;;-128.00;-1.00;-1.00;18839;297;7504731;-34
2023/03/25 01:43:14;;;;;;;4.30;2.20;;;;;;;-128.00;-1.00;-1.00;18867;310;7504600;-31
2023/03/25 01:45:40;;;;;;;7.50;1.40;;;;;;;-128.00;-1.00;-1.00;18438;321;7506756;-35
2023/03/25 01:48:09;;;;;;;6.70;2.90;;;;;;;-128.00;-1.00;-1.00;18475;297;7504344;-35
2023/03/25 01:50:36;;;;;;;3.40;1.50;;;;;;;-128.00;-1.00;-1.00;18466;297;7505105;-30
2023/03/25 01:53:02;;;;;;;4.10;1.70;;;;;;;-128.00;-1.00;-1.00;18460;297;7504319;-34
2023/03/25 01:55:32;;;;;;;1.40;1.20;;;;;;;-128.00;-1.00;-1.00;18447;297;7504747;-34
2023/03/25 01:57:58;;;;;;;4.30;1.70;;;;;;;-128.00;-1.00;-1.00;18482;290;7506253;-32
2023/03/25 02:00:25;;;;;;;3.30;2.10;;;;;;;-128.00;-1.00;-1.00;18450;297;7505562;-31
2023/03/25 02:02:51;;;;;;;2.90;2.10;;;;;;;-128.00;-1.00;-1.00;18445;297;7504952;-34
2023/03/25 02:05:19;;;;;;;3.80;1.60;;;;;;;-128.00;-1.00;-1.00;18463;297;7504308;-34
2023/03/25 02:07:46;;;;;;;2.70;1.90;;;;;;;-128.00;-1.00;-1.00;18445;297;7505883;-34
2023/03/25 02:10:13;;;;;;;4.00;1.70;;;;;;;-128.00;-1.00;-1.00;18450;349;7505038;-34
2023/03/25 02:12:39;;;;;;;2.80;1.90;;;;;;;-128.00;-1.00;-1.00;18438;301;7505113;-34
2023/03/25 02:15:06;;;;;;;1.80;1.40;;;;;;;-128.00;-1.00;-1.00;18429;326;7505580;-30
2023/03/25 02:17:56;;;;;;;2.80;2.00;;;;;;;-128.00;-1.00;-1.00;18469;297;7504517;-30
2023/03/25 02:20:44;;;;;;;5.30;2.00;;;;;;;-128.00;-1.00;-1.00;18460;350;7505031;-30
2023/03/25 02:23:33;;;;;;;3.60;1.50;;;;;;;-128.00;-1.00;-1.00;18472;297;7505086;-31
2023/03/25 02:26:18;;;;;;;2.90;1.60;;;;;;;-128.00;-1.00;-1.00;18479;297;7504399;-34
2023/03/25 02:28:51;;;;;;;4.80;2.20;;;;;;;-128.00;-1.00;-1.00;18452;297;7504390;-31
2023/03/25 02:31:35;;;;;;;3.30;2.00;;;;;;;-128.00;-1.00;-1.00;18436;307;7504334;-34
2023/03/25 02:34:24;;;;;;;2.80;1.50;;;;;;;-128.00;-1.00;-1.00;18482;338;7504824;-34
2023/03/25 02:37:25;;;;;;;2.90;1.70;;;;;;;-128.00;-1.00;-1.00;18463;297;7504842;-34
2023/03/25 02:40:06;;;;;;;3.20;1.70;;;;;;;-128.00;-1.00;-1.00;18457;299;7506909;-35
2023/03/25 02:42:53;;;;;;;4.90;1.60;;;;;;;-128.00;-1.00;-1.00;18446;339;7504996;-34
2023/03/25 02:45:26;;;;;;;2.60;1.30;;;;;;;-128.00;-1.00;-1.00;18441;299;7504982;-31
2023/03/25 02:48:05;;;;;;;3.00;1.80;;;;;;;-128.00;-1.00;-1.00;18467;297;7504597;-34
2023/03/25 02:50:40;;;;;;;2.90;1.10;;;;;;;-128.00;-1.00;-1.00;18474;297;7504383;-34
2023/03/25 02:53:09;;;;;;;3.70;2.30;;;;;;;-128.00;-1.00;-1.00;18458;342;7504760;-34
2023/03/25 02:55:36;;;;;;;7.10;1.70;;;;;;;-128.00;-1.00;-1.00;18485;297;7504344;-30
2023/03/25 02:58:04;;;;;;;5.20;2.90;;;;;;;-128.00;-1.00;-1.00;18447;298;7504220;-31
2023/03/25 03:00:29;;;;;;;2.40;1.90;;;;;;;-128.00;-1.00;-1.00;18466;297;7504924;-34
2023/03/25 03:03:00;;;;;;;3.40;1.50;;;;;;;-128.00;-1.00;-1.00;18434;350;7506391;-34
2023/03/25 03:05:34;;;;;;;3.70;2.10;;;;;;;-128.00;-1.00;-1.00;18480;297;7504202;-30
2023/03/25 03:08:26;;;;;;;3.10;1.60;;;;;;;-128.00;-1.00;-1.00;18478;297;7506149;-31
2023/03/25 03:11:15;;;;;;;6.70;2.20;;;;;;;-128.00;-1.00;-1.00;18468;298;7504679;-30
2023/03/25 03:14:03;;;;;;;1.70;1.50;;;;;;;-128.00;-1.00;-1.00;18480;298;7505523;-34
2023/03/25 03:16:47;;;;;;;2.80;1.80;;;;;;;-128.00;-1.00;-1.00;18476;298;7505201;-31
2023/03/25 03:19:37;;;;;;;5.10;3.60;;;;;;;-128.00;-1.00;-1.00;18470;297;7505022;-34
2023/03/25 03:22:32;;;;;;;5.60;2.40;;;;;;;-128.00;-1.00;-1.00;18463;297;7504887;-33
2023/03/25 03:25:09;;;;;;;6.20;2.30;;;;;;;-128.00;-1.00;-1.00;18455;310;7504504;-31
2023/03/25 03:27:43;;;;;;;3.70;2.00;;;;;;;-128.00;-1.00;-1.00;18482;297;7504517;-31
2023/03/25 03:30:12;;;;;;;4.70;2.30;;;;;;;-128.00;-1.00;-1.00;18470;297;7505757;-31
2023/03/25 03:32:52;;;;;;;5.80;1.80;;;;;;;-128.00;-1.00;-1.00;18465;342;7505804;-34
2023/03/25 03:35:22;;;;;;;4.30;1.80;;;;;;;-128.00;-1.00;-1.00;18466;297;7505790;-30
2023/03/25 03:37:50;;;;;;;3.50;1.90;;;;;;;-128.00;-1.00;-1.00;18455;297;7504906;-33
2023/03/25 03:40:18;;;;;;;9.20;2.00;;;;;;;-128.00;-1.00;-1.00;18489;297;7506189;-30
2023/03/25 03:42:52;;;;;;;4.00;2.40;;;;;;;-128.00;-1.00;-1.00;18451;350;7504764;-34
2023/03/25 03:45:37;;;;;;;4.60;2.40;;;;;;;-128.00;-1.00;-1.00;18464;297;7506110;-30
2023/03/25 03:48:06;;;;;;;3.50;2.10;;;;;;;-128.00;-1.00;-1.00;18479;297;7504492;-31
2023/03/25 03:50:38;;;;;;;3.70;2.30;;;;;;;-128.00;-1.00;-1.00;18457;350;7505185;-34
2023/03/25 03:53:21;;;;;;;13.80;1.90;;;;;;;-128.00;-1.00;-1.00;18470;297;7506330;-34
2023/03/25 03:55:52;;;;;;;4.60;3.40;;;;;;;-128.00;-1.00;-1.00;18479;338;7506499;-34
2023/03/25 03:58:22;;;;;;;3.50;2.20;;;;;;;-128.00;-1.00;-1.00;18486;297;7504747;-30
2023/03/25 04:01:01;;;;;;;4.00;2.70;;;;;;;-128.00;-1.00;-1.00;18471;309;7506200;-34
2023/03/25 04:03:33;;;;;;;4.20;3.70;;;;;;;-128.00;-1.00;-1.00;18456;297;7504581;-30
2023/03/25 04:06:13;;;;;;;3.30;1.80;;;;;;;-128.00;-1.00;-1.00;18461;297;7504688;-34
2023/03/25 04:08:50;;;;;;;5.10;3.20;;;;;;;-128.00;-1.00;-1.00;18464;297;7504682;-30
2023/03/25 04:11:19;;;;;;;4.80;2.70;;;;;;;-128.00;-1.00;-1.00;18471;297;7506241;-31
2023/03/25 04:13:45;;;;;;;6.30;3.30;;;;;;;-128.00;-1.00;-1.00;18470;297;7505057;-32
2023/03/25 04:16:11;;;;;;;4.80;3.50;;;;;;;-128.00;-1.00;-1.00;18861;297;7505709;-31
2023/03/25 04:18:38;;;;;;;6.10;3.90;;;;;;;-128.00;-1.00;-1.00;18867;333;7504935;-34
2023/03/25 04:21:04;;;;;;;11.00;3.70;;;;;;;-128.00;-1.00;-1.00;18433;321;7504903;-34
2023/03/25 04:23:30;;;;;;;5.30;3.70;;;;;;;-128.00;-1.00;-1.00;18442;350;7504600;-34
2023/03/25 04:25:56;;;;;;;6.40;4.00;;;;;;;-128.00;-1.00;-1.00;18462;305;7504895;-30
2023/03/25 04:28:24;;;;;;;7.00;4.10;;;;;;;-128.00;-1.00;-1.00;18456;297;7504788;-34
2023/03/25 04:30:54;;;;;;;5.00;3.30;;;;;;;-128.00;-1.00;-1.00;18404;350;7506676;-34
2023/03/25 04:33:21;;;;;;;4.90;2.90;;;;;;;-128.00;-1.00;-1.00;18463;298;7504688;-30
2023/03/25 04:35:50;;;;;;;6.30;3.10;;;;;;;-128.00;-1.00;-1.00;18453;325;7504631;-31
2023/03/25 05:16:17;;;;;;;4.90;4.20;;;;;;;-101.19;19.20;19666.09;19597;293;8045629;-29
2023/03/25 05:18:43;;;;;;;4.20;3.60;;;;;;;-128.00;-1.00;-1.00;18326;294;7504584;-33
2023/03/25 05:21:10;;;;;;;9.90;4.30;;;;;;;-128.00;-1.00;-1.00;18489;293;7504474;-30
2023/03/25 05:23:36;;;;;;;8.80;4.50;;;;;;;-128.00;-1.00;-1.00;18501;293;7505819;-31
2023/03/25 05:26:02;;;;;;;8.60;4.20;;;;;;;-128.00;-1.00;-1.00;18903;293;7504635;-34
2023/03/25 05:28:29;;;;;;;6.40;3.30;;;;;;;-128.00;-1.00;-1.00;18510;293;7506230;-36
2023/03/25 05:30:54;;;;;;;5.70;4.30;;;;;;;-128.00;-1.00;-1.00;18524;293;7504303;-32
2023/03/25 05:33:21;;;;;;;6.20;4.50;;;;;;;-128.00;-1.00;-1.00;18500;295;7504664;-31
2023/03/25 05:35:47;;;;;;;5.30;3.40;;;;;;;-128.00;-1.00;-1.00;18479;293;7506898;-35
2023/03/25 05:38:17;;;;;;;6.40;4.40;;;;;;;-128.00;-1.00;-1.00;18527;293;7504498;-31
2023/03/25 05:40:45;;;;;;;5.80;3.90;;;;;;;-128.00;-1.00;-1.00;18515;293;7504170;-31
2023/03/25 05:43:11;;;;;;;10.70;4.90;;;;;;;-128.00;-1.00;-1.00;18507;337;7504893;-35
2023/03/25 05:45:37;;;;;;;6.40;3.60;;;;;;;-128.00;-1.00;-1.00;18523;293;7504681;-30
2023/03/25 05:48:03;;;;;;;6.00;4.30;;;;;;;-128.00;-1.00;-1.00;18924;293;7504359;-33
2023/03/25 05:50:30;;;;;;;13.10;5.40;;;;;;;-128.00;-1.00;-1.00;18890;293;7504451;-30
2023/03/25 05:52:58;;;;;;;5.40;4.30;;;;;;;-128.00;-1.00;-1.00;18925;309;7505838;-33
2023/03/25 05:55:24;;;;;;;4.10;3.40;;;;;;;-128.00;-1.00;-1.00;18509;293;7506232;-34
2023/03/25 05:57:50;;;;;;;5.30;4.80;;;;;;;-128.00;-1.00;-1.00;18496;294;7505970;-30
2023/03/25 06:00:18;;;;;;;8.30;3.70;;;;;;;-128.00;-1.00;-1.00;18518;293;7504341;-30
2023/03/25 06:02:44;;;;;;;4.40;4.00;;;;;;;-128.00;-1.00;-1.00;18519;293;7504756;-34
2023/03/25 06:05:12;;;;;;;5.20;4.70;;;;;;;-128.00;-1.00;-1.00;18527;293;7504780;-34
2023/03/25 06:07:41;;;;;;;4.90;3.80;;;;;;;-128.00;-1.00;-1.00;18497;293;7504204;-30
2023/03/25 06:10:09;;;;;;;11.70;5.10;;;;;;;-128.00;-1.00;-1.00;18484;294;7505001;-30
2023/03/25 06:12:37;;;;;;;6.90;4.50;;;;;;;-128.00;-1.00;-1.00;18507;293;7506951;-34
2023/03/25 06:15:08;;;;;;;10.30;5.00;;;;;;;-128.00;-1.00;-1.00;18473;293;7505398;-35
2023/03/25 06:17:37;;;;;;;4.90;4.40;;;;;;;-128.00;-1.00;-1.00;18516;293;7504567;-34
2023/03/25 06:20:10;;;;;;;11.40;5.00;;;;;;;-128.00;-1.00;-1.00;18506;293;7504346;-34
2023/03/25 06:22:39;;;;;;;4.90;3.30;;;;;;;-128.00;-1.00;-1.00;18466;293;7504794;-30
2023/03/25 06:25:06;;;;;;;4.20;3.80;;;;;;;-128.00;-1.00;-1.00;18552;293;7505095;-30
2023/03/25 06:27:33;;;;;;;4.10;3.70;;;;;;;-128.00;-1.00;-1.00;18538;293;7504896;-31
2023/03/25 06:30:01;;;;;;;4.60;4.00;;;;;;;-128.00;-1.00;-1.00;18482;293;7504166;-34
2023/03/25 06:32:27;;;;;;;3.70;2.20;;;;;;;-128.00;-1.00;-1.00;18504;286;7506297;-31
2023/03/25 06:34:53;;;;;;;4.40;3.70;;;;;;;-128.00;-1.00;-1.00;18910;294;7505057;-34
2023/03/25 06:37:20;;;;;;;6.50;3.80;;;;;;;-128.00;-1.00;-1.00;18908;293;7504789;-35
2023/03/25 06:39:48;;;;;;;2.50;1.70;;;;;;;-128.00;-1.00;-1.00;18517;293;7506448;-31
2023/03/25 06:42:14;;;;;;;2.80;2.50;;;;;;;-128.00;-1.00;-1.00;18523;294;7504501;-35
2023/03/25 06:44:39;;;;;;;4.90;3.40;;;;;;;-128.00;-1.00;-1.00;18512;293;7504176;-32
2023/03/25 06:47:06;;;;;;;3.80;2.40;;;;;;;-128.00;-1.00;-1.00;18911;294;7504816;-31
2023/03/25 06:49:32;;;;;;;11.30;3.60;;;;;;;-128.00;-1.00;-1.00;18905;293;7504712;-36
2023/03/25 06:51:58;;;;;;;4.90;3.30;;;;;;;-128.00;-1.00;-1.00;18904;293;7504526;-34
2023/03/25 06:54:24;;;;;;;5.10;2.70;;;;;;;-128.00;-1.00;-1.00;18920;293;7504554;-32
2023/03/25 06:56:50;;;;;;;5.80;2.50;;;;;;;-128.00;-1.00;-1.00;18908;293;7504256;-31
2023/03/25 06:59:16;;;;;;;6.40;2.70;;;;;;;-128.00;-1.00;-1.00;18934;293;7505213;-32
2023/03/25 07:01:43;;;;;;;5.00;3.90;;;;;;;-128.00;-1.00;-1.00;18898;293;7505473;-35
2023/03/25 07:04:09;;;;;;;7.80;3.00;;;;;;;-128.00;-1.00;-1.00;18894;293;7504189;-35
2023/03/25 07:06:35;;;;;;;8.70;3.00;;;;;;;-128.00;-1.00;-1.00;18927;293;7504839;-35
2023/03/25 07:09:02;;;;;;;5.20;2.90;;;;;;;-128.00;-1.00;-1.00;18867;339;7504691;-36
2023/03/25 07:11:28;;;;;;;4.80;2.70;;;;;;;-128.00;-1.00;-1.00;18901;293;7504623;-32
2023/03/25 07:13:55;;;;;;;3.30;1.60;;;;;;;-128.00;-1.00;-1.00;18902;293;7504329;-32
2023/03/25 07:16:21;;;;;;;3.50;2.30;;;;;;;-128.00;-1.00;-1.00;18904;293;7506806;-32
2023/03/25 07:18:49;;;;;;;5.00;2.10;;;;;;;-128.00;-1.00;-1.00;18900;293;7504689;-32
2023/03/25 07:21:16;;;;;;;3.80;2.30;;;;;;;-128.00;-1.00;-1.00;18504;293;7504417;-35
2023/03/25 07:23:41;;;;;;;2.40;1.90;;;;;;;-128.00;-1.00;-1.00;18521;294;7504955;-35
2023/03/25 07:26:07;;;;;;;3.50;2.10;;;;;;;-128.00;-1.00;-1.00;18875;294;7504739;-35
2023/03/25 07:28:34;;;;;;;4.10;1.70;;;;;;;-128.00;-1.00;-1.00;18928;293;7506316;-33
2023/03/25 07:31:00;;;;;;;4.60;2.30;;;;;;;-128.00;-1.00;-1.00;18910;293;7505022;-35
2023/03/25 07:33:26;;;;;;;7.00;2.20;;;;;;;-128.00;-1.00;-1.00;18909;293;7504756;-31
2023/03/25 07:35:52;;;;;;;4.70;1.50;;;;;;;-128.00;-1.00;-1.00;18925;294;7504090;-31
2023/03/25 07:38:19;;;;;;;4.90;1.10;;;;;;;-128.00;-1.00;-1.00;18910;293;7504959;-31
2023/03/25 07:40:45;;;;;;;6.20;1.90;;;;;;;-128.00;-1.00;-1.00;18515;294;7504882;-37
2023/03/25 07:43:10;;;;;;;3.10;1.30;;;;;;;-128.00;-1.00;-1.00;18501;301;7504531;-31
2023/03/25 07:45:36;;;;;;;3.00;1.60;;;;;;;-128.00;-1.00;-1.00;18497;317;7505907;-35
2023/03/25 07:48:02;;;;;;;2.60;1.40;;;;;;;-128.00;-1.00;-1.00;18875;301;7504879;-36
2023/03/25 07:50:28;;;;;;;4.30;1.70;;;;;;;-128.00;-1.00;-1.00;18477;345;7504234;-35
2023/03/25 07:52:54;;;;;;;4.90;1.90;;;;;;;-128.00;-1.00;-1.00;18886;294;7504531;-32
2023/03/25 07:55:21;;;;;;;5.40;1.30;;;;;;;-128.00;-1.00;-1.00;18864;346;7504151;-31
2023/03/25 07:57:47;;;;;;;2.20;0.90;;;;;;;-128.00;-1.00;-1.00;18916;293;7504703;-35
2023/03/25 08:00:13;;;;;;;3.60;0.90;;;;;;;-128.00;-1.00;-1.00;18903;293;7505435;-35
2023/03/25 08:02:40;;;;;;;3.20;1.50;;;;;;;-128.00;-1.00;-1.00;18883;302;7504914;-35
2023/03/25 08:05:06;;;;;;;1.30;0.90;;;;;;;-128.00;-1.00;-1.00;18529;294;7504903;-32
2023/03/25 08:07:32;;;;;;;3.60;1.20;;;;;;;-128.00;-1.00;-1.00;18498;293;7506446;-32
2023/03/25 08:09:58;;;;;;;5.10;1.60;;;;;;;-128.00;-1.00;-1.00;18515;293;7504507;-36
2023/03/25 08:12:23;;;;;;;1.70;1.00;;;;;;;-128.00;-1.00;-1.00;18496;293;7504460;-36
2023/03/25 08:14:49;;;;;;;2.00;1.30;;;;;;;-128.00;-1.00;-1.00;18497;293;7504661;-36
2023/03/25 08:17:16;;;;;;;2.60;1.10;;;;;;;-128.00;-1.00;-1.00;18503;293;7504728;-32
2023/03/25 08:19:42;;;;;;;3.00;1.20;;;;;;;-128.00;-1.00;-1.00;18536;293;7506186;-36
2023/03/25 08:22:08;;;;;;;1.30;0.90;;;;;;;-128.00;-1.00;-1.00;18506;293;7505885;-37
2023/03/25 08:24:34;;;;;;;1.70;1.00;;;;;;;-128.00;-1.00;-1.00;18535;293;7504337;-36
2023/03/25 08:26:59;;;;;;;4.20;0.50;;;;;;;-128.00;-1.00;-1.00;18515;293;7506016;-36
2023/03/25 08:29:26;;;;;;;3.00;1.10;;;;;;;-128.00;-1.00;-1.00;18902;293;7505287;-36
2023/03/25 08:31:52;;;;;;;1.30;0.50;;;;;;;-128.00;-1.00;-1.00;18505;294;7506745;-33
2023/03/25 08:34:19;;;;;;;1.70;0.90;;;;;;;-128.00;-1.00;-1.00;18476;317;7506143;-36
2023/03/25 08:36:45;;;;;;;1.80;0.90;;;;;;;-128.00;-1.00;-1.00;18517;293;7504823;-30
2023/03/25 08:39:11;;;;;;;3.00;1.20;;;;;;;-128.00;-1.00;-1.00;18508;293;7505955;-35
2023/03/25 08:41:38;;;;;;;5.10;1.10;;;;;;;-128.00;-1.00;-1.00;18501;293;7504701;-33
2023/03/25 08:44:05;;;;;;;1.70;1.00;;;;;;;-128.00;-1.00;-1.00;18505;294;7506280;-36
2023/03/25 08:46:31;;;;;;;5.00;1.50;;;;;;;-128.00;-1.00;-1.00;18496;293;7504254;-32
2023/03/25 08:48:57;;;;;;;1.80;0.80;;;;;;;-128.00;-1.00;-1.00;18474;310;7505810;-31
2023/03/25 08:51:22;;;;;;;1.50;0.90;;;;;;;-128.00;-1.00;-1.00;18479;293;7504869;-32
2023/03/25 08:53:49;;;;;;;3.40;1.00;;;;;;;-128.00;-1.00;-1.00;18937;294;7504452;-30
2023/03/25 08:56:15;;;;;;;4.50;0.80;;;;;;;-128.00;-1.00;-1.00;18862;288;7505344;-31
2023/03/25 08:58:42;;;;;;;3.10;1.40;;;;;;;-128.00;-1.00;-1.00;18470;294;7504320;-34
2023/03/25 09:01:08;;;;;;;4.70;1.50;;;;;;;-128.00;-1.00;-1.00;18487;293;7505320;-31
2023/03/25 09:03:33;;;;;;;1.40;0.70;;;;;;;-128.00;-1.00;-1.00;18506;293;7506166;-31
2023/03/25 09:06:03;;;;;;;1.70;0.90;;;;;;;-128.00;-1.00;-1.00;18499;293;7504438;-30
2023/03/25 09:08:29;;;;;;;1.40;0.60;;;;;;;-128.00;-1.00;-1.00;18502;294;7505592;-30
2023/03/25 09:10:55;;;;;;;2.50;1.10;;;;;;;-128.00;-1.00;-1.00;18524;293;7504638;-34
2023/03/25 09:13:21;;;;;;;4.30;1.20;;;;;;;-128.00;-1.00;-1.00;18913;345;7504424;-34
2023/03/25 09:15:47;;;;;;;1.60;0.70;;;;;;;-128.00;-1.00;-1.00;18914;345;7504453;-35
2023/03/25 09:18:13;;;;;;;2.30;1.00;;;;;;;-128.00;-1.00;-1.00;18929;293;7506103;-32
2023/03/25 09:20:40;;;;;;;2.60;1.00;;;;;;;-128.00;-1.00;-1.00;18889;294;7504110;-31
2023/03/25 09:23:08;;;;;;;3.70;0.90;;;;;;;-128.00;-1.00;-1.00;18955;293;7504351;-34
2023/03/25 09:25:34;;;;;;;2.80;0.80;;;;;;;-128.00;-1.00;-1.00;18509;293;7505159;-35
2023/03/25 09:28:00;;;;;;;1.10;0.80;;;;;;;-128.00;-1.00;-1.00;18505;345;7505279;-32
2023/03/25 09:30:25;;;;;;;1.40;1.00;;;;;;;-128.00;-1.00;-1.00;18488;293;7506047;-31
2023/03/25 09:32:52;;;;;;;5.40;0.80;;;;;;;-128.00;-1.00;-1.00;18898;293;7504166;-31
2023/03/25 09:35:18;;;;;;;1.20;0.90;;;;;;;-128.00;-1.00;-1.00;18912;293;7504530;-35
2023/03/25 09:37:44;;;;;;;3.90;0.80;;;;;;;-128.00;-1.00;-1.00;18882;293;7504753;-35
2023/03/25 09:40:15;;;;;;;2.50;0.80;;;;;;;-128.00;-1.00;-1.00;18916;293;7504838;-32
2023/03/25 09:43:07;;;;;;;2.50;0.90;;;;;;;-128.00;-1.00;-1.00;18514;293;7504820;-35
2023/03/25 09:45:46;;;;;;;13.30;1.50;;;;;;;-128.00;-1.00;-1.00;18475;294;7506071;-35
2023/03/25 09:48:26;;;;;;;4.10;0.90;;;;;;;-128.00;-1.00;-1.00;18527;293;7504280;-32
2023/03/25 09:50:51;;;;;;;1.70;1.00;;;;;;;-128.00;-1.00;-1.00;18496;293;7505068;-32
2023/03/25 09:53:35;;;;;;;1.10;0.50;;;;;;;-128.00;-1.00;-1.00;18504;294;7504716;-32
2023/03/25 09:56:01;;;;;;;0.30;0.20;;;;;;;-128.00;-1.00;-1.00;18498;293;7504814;-31
2023/03/25 09:58:40;;;;;;;1.40;0.60;;;;;;;-128.00;-1.00;-1.00;18494;294;7504768;-35
2023/03/25 10:01:20;;;;;;;1.60;0.30;;;;;;;-128.00;-1.00;-1.00;18503;294;7504322;-32
2023/03/25 10:04:02;;;;;;;1.40;0.80;;;;;;;-128.00;-1.00;-1.00;18515;293;7506445;-36
2023/03/25 10:06:29;;;;;;;2.10;1.20;;;;;;;-128.00;-1.00;-1.00;18516;293;7504252;-35
2023/03/25 10:09:19;;;;;;;2.90;1.30;;;;;;;-128.00;-1.00;-1.00;18508;293;7505156;-36
2023/03/25 10:12:05;;;;;;;1.10;0.70;;;;;;;-128.00;-1.00;-1.00;18508;293;7506847;-32
2023/03/25 10:14:46;;;;;;;1.50;0.60;;;;;;;-128.00;-1.00;-1.00;18507;288;7506141;-34
2023/03/25 10:17:28;;;;;;;0.70;0.40;;;;;;;-128.00;-1.00;-1.00;18505;294;7505710;-35
2023/03/25 10:20:11;;;;;;;1.50;0.50;;;;;;;-128.00;-1.00;-1.00;18478;294;7504457;-35
2023/03/25 10:23:01;;;;;;;1.10;0.70;;;;;;;-128.00;-1.00;-1.00;18497;321;7505838;-35
2023/03/25 10:25:28;;;;;;;1.30;0.60;;;;;;;-128.00;-1.00;-1.00;18498;294;7504253;-35
2023/03/25 10:27:54;;;;;;;1.40;0.60;;;;;;;-128.00;-1.00;-1.00;18496;294;7505065;-31
2023/03/25 10:30:25;;;;;;;0.40;0.40;;;;;;;-128.00;-1.00;-1.00;18502;293;7504296;-35
2023/03/25 10:32:56;;;;;;;1.30;0.20;;;;;;;-128.00;-1.00;-1.00;18489;293;7506005;-35
2023/03/25 10:35:35;;;;;;;0.40;0.30;;;;;;;-128.00;-1.00;-1.00;18534;294;7504214;-32
2023/03/25 10:38:12;;;;;;;0.60;0.40;;;;;;;-128.00;-1.00;-1.00;18503;293;7504900;-30
2023/03/25 10:40:39;;;;;;;4.90;0.50;;;;;;;-128.00;-1.00;-1.00;18511;293;7505161;-35
2023/03/25 10:43:17;;;;;;;0.40;0.20;;;;;;;-128.00;-1.00;-1.00;18522;294;7504932;-31
2023/03/25 10:45:43;;;;;;;0.80;0.50;;;;;;;-128.00;-1.00;-1.00;18473;294;7505284;-31
2023/03/25 10:48:26;;;;;;;2.10;0.40;;;;;;;-128.00;-1.00;-1.00;18523;293;7504638;-34
2023/03/25 10:51:05;;;;;;;1.00;0.50;;;;;;;-128.00;-1.00;-1.00;18533;293;7505886;-35
2023/03/25 10:53:31;;;;;;;1.10;0.20;;;;;;;-128.00;-1.00;-1.00;18527;293;7504578;-35
2023/03/25 10:56:12;;;;;;;0.50;0.50;;;;;;;-128.00;-1.00;-1.00;18482;294;7504231;-32
2023/03/25 10:58:38;;;;;;;1.30;0.30;;;;;;;-128.00;-1.00;-1.00;18486;345;7505903;-35
2023/03/25 11:01:16;;;;;;;2.60;0.20;;;;;;;-128.00;-1.00;-1.00;18506;293;7504774;-32
2023/03/25 11:03:42;;;;;;;1.50;0.80;;;;;;;-128.00;-1.00;-1.00;18507;294;7506441;-35
2023/03/25 11:45:38;;;;;;;0.60;0.50;;;;;;;-99.54;9.83;19642.46;98122;295;1546450;-34
2023/03/25 11:48:11;;;;;;;0.70;0.40;;;;;;;-128.00;-1.00;-1.00;97475;296;1004626;-34
2023/03/25 11:50:37;;;;;;;;;;;;;;;-128.00;-1.00;-1.00;97842;296;1003157;-32
2023/03/25 11:53:02;;;;;;;0.60;0.30;;;;;;;-128.00;-1.00;-1.00;97790;295;1003286;-34
2023/03/25 11:55:30;;;;;;;3.90;0.60;;;;;;;-128.00;-1.00;-1.00;97792;295;1002612;-31
2023/03/25 11:57:57;;;;;;;1.70;0.60;;;;;;;-128.00;-1.00;-1.00;97897;294;1004159;-37
2023/03/25 12:00:36;;;;;;;2.10;0.50;;;;;;;-128.00;-1.00;-1.00;97922;294;1004120;-34
2023/03/25 12:03:17;;;;;;;5.10;0.70;;;;;;;-128.00;-1.00;-1.00;97855;294;1003170;-30
2023/03/25 12:05:42;;;;;;;2.00;0.40;;;;;;;-128.00;-1.00;-1.00;97876;294;1003442;-34
2023/03/25 12:08:16;;;;;;;1.10;0.40;;;;;;;-128.00;-1.00;-1.00;97807;287;1003433;-34
2023/03/25 12:10:55;;;;;;;0.90;0.90;;;;;;;-128.00;-1.00;-1.00;97845;296;1003102;-30
2023/03/25 12:13:50;;;;;;;1.90;0.50;;;;;;;-128.00;-1.00;-1.00;97859;294;1003476;-32
2023/03/25 12:16:33;;;;;;;0.40;0.30;;;;;;;-128.00;-1.00;-1.00;97808;295;1002960;-34
2023/03/25 12:19:23;;;;;;;1.70;0.60;;;;;;;-128.00;-1.00;-1.00;97849;295;1003272;-31
2023/03/25 12:22:05;;;;;;;1.30;0.40;;;;;;;-128.00;-1.00;-1.00;97806;295;1003368;-32
2023/03/25 12:24:57;;;;;;;2.30;0.60;;;;;;;-128.00;-1.00;-1.00;97846;295;1003098;-32
2023/03/25 12:27:36;;;;;;;10.80;0.40;;;;;;;-128.00;-1.00;-1.00;97827;295;1004077;-34
2023/03/25 12:30:08;;;;;;;0.90;0.20;;;;;;;-128.00;-1.00;-1.00;97756;296;1002609;-34
2023/03/25 12:32:41;;;;;;;0.80;0.40;;;;;;;-128.00;-1.00;-1.00;97841;295;1003671;-36
2023/03/25 12:35:16;;;;;;;1.90;0.60;;;;;;;-128.00;-1.00;-1.00;97905;294;1002998;-34
2023/03/25 12:38:06;;;;;;;2.50;1.10;;;;;;;-128.00;-1.00;-1.00;97931;294;1005104;-32
2023/03/25 12:40:53;;;;;;;1.00;0.70;;;;;;;-128.00;-1.00;-1.00;97883;296;1003349;-31
2023/03/25 12:43:43;;;;;;;5.40;0.80;;;;;;;-128.00;-1.00;-1.00;97814;283;1002887;-36
2023/03/25 12:46:33;;;;;;;2.50;0.60;;;;;;;-128.00;-1.00;-1.00;97911;295;1004392;-30
2023/03/25 12:49:26;;;;;;;2.50;1.10;;;;;;;-128.00;-1.00;-1.00;97913;295;1003244;-29
2023/03/25 12:52:21;;;;;;;2.80;1.50;;;;;;;-128.00;-1.00;-1.00;97821;283;1003431;-32
2023/03/25 12:55:08;;;;;;;11.40;0.40;;;;;;;-128.00;-1.00;-1.00;97888;295;1002872;-36
2023/03/25 12:57:57;;;;;;;1.70;0.70;;;;;;;-128.00;-1.00;-1.00;97829;295;1004691;-30
2023/03/25 13:00:33;;;;;;;2.70;0.60;;;;;;;-128.00;-1.00;-1.00;97882;295;1004602;-33
2023/03/25 13:03:17;;;;;;;1.00;0.50;;;;;;;-128.00;-1.00;-1.00;97856;295;1003941;-38
2023/03/25 13:05:57;;;;;;;3.70;2.70;;;;;;;-128.00;-1.00;-1.00;97878;297;1004056;-33
2023/03/25 13:08:28;;;;;;;7.40;3.20;;;;;;;-128.00;-1.00;-1.00;97889;295;1004284;-36